createdAt,value
2022-08-28T00:02:18.624Z,96.84
2022-08-28T00:05:08.972Z,96.54
2022-08-28T00:07:57.297Z,96.70
2022-08-28T00:10:46.486Z,96.50
2022-08-28T00:13:37.262Z,95.95
2022-08-28T00:16:26.527Z,95.80
2022-08-28T00:19:16.599Z,94.53
2022-08-28T00:22:04.539Z,93.58
2022-08-28T00:24:52.440Z,93.71
2022-08-28T00:27:55.871Z,93.36
2022-08-28T00:30:54.523Z,92.92
2022-08-28T00:33:42.458Z,92.19
2022-08-28T00:36:33.382Z,91.97
2022-08-28T00:39:24.182Z,90.96
2022-08-28T00:42:12.226Z,90.43
2022-08-28T00:45:00.493Z,89.70
2022-08-28T00:47:48.463Z,89.92
2022-08-28T00:50:56.753Z,89.63
2022-08-28T00:53:49.103Z,90.10
2022-08-28T00:56:43.508Z,90.56
2022-08-28T00:59:31.336Z,91.14
2022-08-28T01:02:19.763Z,91.15
2022-08-28T01:05:09.621Z,91.05
2022-08-28T01:07:59.019Z,91.51
2022-08-28T01:10:53.233Z,91.24
2022-08-28T01:13:46.686Z,91.39
2022-08-28T01:16:36.269Z,91.01
2022-08-28T01:19:35.109Z,91.17
2022-08-28T01:22:43.881Z,91.66
2022-08-28T01:25:35.198Z,91.31
2022-08-28T01:28:23.322Z,90.84
2022-08-28T01:31:16.110Z,90.55
2022-08-28T01:34:05.873Z,90.50
2022-08-28T01:36:53.961Z,91.06
2022-08-28T01:39:41.805Z,90.44
2022-08-28T01:42:29.684Z,90.85
2022-08-28T01:45:20.549Z,90.89
2022-08-28T01:48:09.008Z,91.43
2022-08-28T01:50:56.973Z,91.96
2022-08-28T01:53:45.136Z,91.75
2022-08-28T01:56:38.058Z,90.96
2022-08-28T01:59:26.103Z,91.00
2022-08-28T02:02:14.044Z,90.82
2022-08-28T02:05:01.976Z,90.26
2022-08-28T02:07:53.468Z,90.05
2022-08-28T02:10:43.720Z,90.30
2022-08-28T02:13:31.931Z,89.82
2022-08-28T02:16:21.031Z,90.11
2022-08-28T02:19:08.938Z,90.48
2022-08-28T02:21:56.807Z,90.98
2022-08-28T02:24:45.323Z,91.06
2022-08-28T02:27:33.543Z,91.28
2022-08-28T02:30:21.970Z,91.23
2022-08-28T02:33:09.862Z,91.24
2022-08-28T02:35:57.780Z,91.01
2022-08-28T02:38:55.343Z,91.37
2022-08-28T02:41:45.636Z,91.40
2022-08-28T02:44:34.105Z,91.33
2022-08-28T02:47:21.979Z,92.06
2022-08-28T02:50:13.119Z,92.63
2022-08-28T02:53:01.038Z,93.18
2022-08-28T02:55:48.880Z,93.39
2022-08-28T02:58:36.976Z,93.20
2022-08-28T03:01:24.929Z,92.76
2022-08-28T03:04:13.066Z,92.38
2022-08-28T03:07:00.961Z,92.01
2022-08-28T03:09:50.005Z,91.98
2022-08-28T03:12:38.397Z,91.38
2022-08-28T03:15:26.226Z,91.63
2022-08-28T03:18:15.698Z,92.42
2022-08-28T03:21:04.574Z,92.16
2022-08-28T03:23:52.868Z,91.63
2022-08-28T03:26:40.689Z,91.30
2022-08-28T03:29:28.683Z,90.80
2022-08-28T03:32:16.513Z,91.02
2022-08-28T03:35:05.545Z,90.80
2022-08-28T03:37:53.405Z,90.96
2022-08-28T03:40:42.563Z,91.58
2022-08-28T03:43:31.480Z,91.17
2022-08-28T03:46:23.690Z,91.31
2022-08-28T03:49:11.664Z,91.01
2022-08-28T03:51:59.631Z,91.35
2022-08-28T03:54:48.077Z,90.62
2022-08-28T03:57:37.556Z,90.22
2022-08-28T04:00:25.966Z,89.94
2022-08-28T04:03:14.062Z,89.49
2022-08-28T04:06:02.064Z,89.61
2022-08-28T04:08:51.099Z,89.84
2022-08-28T04:11:42.461Z,90.02
2022-08-28T04:14:30.292Z,90.48
2022-08-28T04:17:18.072Z,90.13
2022-08-28T04:20:08.129Z,90.54
2022-08-28T04:22:55.965Z,90.25
2022-08-28T04:25:43.731Z,90.01
2022-08-28T04:28:32.638Z,90.25
2022-08-28T04:31:31.027Z,89.99
2022-08-28T04:34:20.365Z,90.39
2022-08-28T04:37:08.191Z,90.83
2022-08-28T04:39:56.038Z,90.70
2022-08-28T04:42:45.069Z,90.44
2022-08-28T04:45:33.436Z,90.79
2022-08-28T04:48:21.228Z,91.01
2022-08-28T04:51:12.283Z,91.00
2022-08-28T04:54:02.926Z,91.07
2022-08-28T04:56:51.101Z,91.20
2022-08-28T04:59:40.652Z,91.34
2022-08-28T05:02:28.548Z,91.28
2022-08-28T05:05:17.214Z,90.89
2022-08-28T05:08:06.434Z,91.13
2022-08-28T05:10:55.874Z,91.57
2022-08-28T05:13:43.797Z,91.76
2022-08-28T05:16:32.027Z,91.73
2022-08-28T05:19:21.021Z,91.68
2022-08-28T05:22:11.417Z,91.75
2022-08-28T05:25:01.091Z,91.51
2022-08-28T05:27:48.897Z,91.16
2022-08-28T05:30:38.400Z,90.88
2022-08-28T05:33:26.189Z,91.24
2022-08-28T05:36:16.221Z,90.92
2022-08-28T05:39:09.957Z,91.40
2022-08-28T05:41:57.741Z,91.92
2022-08-28T05:44:45.610Z,92.22
2022-08-28T05:47:33.424Z,92.44
2022-08-28T05:50:21.475Z,92.10
2022-08-28T05:53:09.285Z,92.19
2022-08-28T05:55:57.085Z,91.90
2022-08-28T05:58:45.089Z,91.17
2022-08-28T06:01:37.105Z,89.58
2022-08-28T06:04:28.142Z,87.90
2022-08-28T06:07:16.069Z,86.12
2022-08-28T06:10:04.555Z,84.98
2022-08-28T06:12:54.017Z,83.10
2022-08-28T06:15:43.765Z,81.07
2022-08-28T06:18:31.822Z,80.95
2022-08-28T06:21:20.688Z,81.62
2022-08-28T06:24:10.683Z,80.18
2022-08-28T06:26:59.632Z,81.95
2022-08-28T06:29:47.464Z,81.46
2022-08-28T06:32:35.324Z,81.83
2022-08-28T06:35:23.268Z,81.62
2022-08-28T06:38:14.452Z,81.44
2022-08-28T06:41:02.566Z,80.79
2022-08-28T06:43:50.546Z,80.24
2022-08-28T06:46:38.984Z,80.32
2022-08-28T06:49:26.787Z,80.40
2022-08-28T06:52:14.861Z,80.09
2022-08-28T06:55:02.846Z,79.77
2022-08-28T06:57:51.088Z,79.63
2022-08-28T07:00:40.432Z,79.20
2022-08-28T07:03:30.163Z,77.77
2022-08-28T07:06:19.150Z,77.29
2022-08-28T07:09:11.282Z,76.67
2022-08-28T07:11:59.261Z,76.71
2022-08-28T07:14:47.065Z,76.41
2022-08-28T07:17:34.930Z,76.37
2022-08-28T07:20:22.882Z,74.87
2022-08-28T07:23:11.440Z,74.36
2022-08-28T07:26:00.234Z,75.31
2022-08-28T07:28:48.275Z,74.91
2022-08-28T07:31:37.746Z,75.39
2022-08-28T07:34:26.936Z,75.48
2022-08-28T07:37:17.834Z,75.38
2022-08-28T07:40:07.056Z,74.64
2022-08-28T07:43:14.050Z,75.80
2022-08-28T07:46:07.116Z,73.05
2022-08-28T07:48:55.666Z,71.72
2022-08-28T07:51:43.680Z,70.52
2022-08-28T07:54:36.105Z,69.77
2022-08-28T07:57:24.074Z,69.31
2022-08-28T08:00:13.229Z,67.30
2022-08-28T08:03:01.463Z,66.11
2022-08-28T08:05:57.477Z,65.09
2022-08-28T08:08:46.353Z,63.32
2022-08-28T08:11:34.822Z,62.44
2022-08-28T08:14:23.418Z,60.89
2022-08-28T08:17:12.059Z,60.01
2022-08-28T08:20:01.187Z,58.63
2022-08-28T08:22:49.253Z,58.12
2022-08-28T08:25:37.120Z,57.41
2022-08-28T08:28:26.092Z,55.26
2022-08-28T08:31:27.635Z,54.06
2022-08-28T08:34:16.950Z,54.43
2022-08-28T08:37:05.906Z,52.76
2022-08-28T08:39:54.846Z,52.67
2022-08-28T08:42:49.141Z,49.76
2022-08-28T08:45:38.572Z,46.55
2022-08-28T08:48:37.038Z,46.00
2022-08-28T08:52:06.343Z,43.82
2022-08-28T08:55:28.353Z,43.25
2022-08-28T08:58:38.424Z,43.47
2022-08-28T09:02:07.379Z,44.30
2022-08-28T09:05:17.278Z,41.99
2022-08-28T09:08:19.280Z,41.96
2022-08-28T09:11:50.383Z,41.07
2022-08-28T09:15:11.335Z,38.95
2022-08-28T09:18:22.529Z,38.28
2022-08-28T09:21:29.241Z,37.31
2022-08-28T09:24:33.032Z,36.97
2022-08-28T09:27:52.715Z,37.57
2022-08-28T09:31:19.613Z,37.29
2022-08-28T09:34:35.466Z,35.54
2022-08-28T09:37:32.270Z,33.26
2022-08-28T09:40:52.004Z,31.89
2022-08-28T09:43:47.578Z,33.04
2022-08-28T09:46:45.013Z,33.26
2022-08-28T09:49:37.316Z,34.23
2022-08-28T09:52:28.894Z,36.34
2022-08-28T09:55:49.386Z,35.85
2022-08-28T09:59:03.225Z,36.66
2022-08-28T10:02:38.600Z,36.04
2022-08-28T10:05:55.873Z,32.86
2022-08-28T10:09:06.851Z,33.39
2022-08-28T10:12:41.315Z,33.27
2022-08-28T10:16:15.032Z,35.56
2022-08-28T10:20:00.412Z,34.41
2022-08-28T10:23:37.743Z,36.30
2022-08-28T10:26:48.920Z,35.63
2022-08-28T10:29:53.887Z,35.20
2022-08-28T10:33:34.286Z,36.15
2022-08-28T10:36:34.644Z,39.99
2022-08-28T10:39:56.422Z,41.51
2022-08-28T10:43:07.598Z,42.01
2022-08-28T10:46:07.782Z,42.82
2022-08-28T10:49:11.211Z,43.96
2022-08-28T10:52:19.865Z,43.61
2022-08-28T10:55:43.308Z,44.72
2022-08-28T10:58:39.667Z,44.87
2022-08-28T11:01:40.687Z,44.85
2022-08-28T11:04:30.009Z,44.99
2022-08-28T11:07:37.915Z,45.55
2022-08-28T11:10:52.990Z,45.94
2022-08-28T11:13:57.632Z,46.34
2022-08-28T11:16:47.646Z,46.01
2022-08-28T11:20:28.943Z,46.50
2022-08-28T11:23:46.764Z,46.08
2022-08-28T11:27:16.894Z,45.44
2022-08-28T11:30:31.835Z,45.79
2022-08-28T11:33:52.419Z,45.56
2022-08-28T11:37:03.741Z,45.24
2022-08-28T11:40:54.676Z,45.29
2022-08-28T11:43:47.386Z,45.41
2022-08-28T11:46:48.381Z,45.05
2022-08-28T11:49:42.778Z,44.82
2022-08-28T11:52:52.839Z,44.78
2022-08-28T11:56:43.658Z,44.35
2022-08-28T12:00:05.216Z,43.60
2022-08-28T12:03:15.237Z,43.70
2022-08-28T12:06:04.675Z,44.63
2022-08-28T12:09:05.001Z,41.53
2022-08-28T12:12:07.973Z,43.13
2022-08-28T12:15:07.689Z,43.28
2022-08-28T12:18:11.977Z,41.33
2022-08-28T12:21:31.068Z,41.91
2022-08-28T12:24:24.512Z,40.84
2022-08-28T12:27:16.122Z,41.19
2022-08-28T12:30:06.393Z,39.23
2022-08-28T12:33:44.351Z,41.13
2022-08-28T12:36:37.212Z,40.45
2022-08-28T12:39:31.106Z,40.23
2022-08-28T12:42:29.907Z,39.18
2022-08-28T12:45:31.068Z,38.61
2022-08-28T12:48:48.120Z,38.94
2022-08-28T12:51:38.470Z,38.80
2022-08-28T12:54:30.342Z,37.15
2022-08-28T12:57:25.131Z,37.25
2022-08-28T13:00:24.417Z,36.56
2022-08-28T13:03:15.881Z,36.29
2022-08-28T13:06:09.907Z,36.49
2022-08-28T13:09:04.698Z,35.09
2022-08-28T13:11:53.063Z,34.45
2022-08-28T13:14:46.879Z,34.34
2022-08-28T13:17:52.719Z,36.43
2022-08-28T13:20:44.156Z,35.71
2022-08-28T13:23:34.617Z,35.46
2022-08-28T13:26:36.368Z,35.41
2022-08-28T13:29:26.787Z,35.28
2022-08-28T13:32:19.854Z,34.81
2022-08-28T13:35:25.173Z,34.70
2022-08-28T13:38:20.056Z,35.20
2022-08-28T13:41:13.203Z,34.84
2022-08-28T13:44:02.884Z,35.33
2022-08-28T13:46:55.742Z,35.04
2022-08-28T13:49:44.993Z,34.29
2022-08-28T13:52:37.499Z,34.24
2022-08-28T13:55:28.229Z,34.64
2022-08-28T13:58:18.181Z,34.50
2022-08-28T14:01:10.569Z,34.37
2022-08-28T14:04:01.144Z,34.59
2022-08-28T14:06:51.066Z,34.55
2022-08-28T14:09:41.477Z,34.06
2022-08-28T14:12:33.615Z,34.27
2022-08-28T14:15:25.758Z,34.51
2022-08-28T14:18:17.577Z,33.88
2022-08-28T14:21:09.306Z,34.67
2022-08-28T14:24:00.511Z,34.56
2022-08-28T14:26:51.595Z,34.66
2022-08-28T14:29:44.836Z,33.64
2022-08-28T14:32:37.474Z,33.78
2022-08-28T14:35:29.588Z,33.80
2022-08-28T14:38:21.363Z,33.46
2022-08-28T14:41:14.713Z,33.87
2022-08-28T14:44:04.375Z,33.33
2022-08-28T14:46:57.200Z,33.45
2022-08-28T14:49:46.702Z,33.66
2022-08-28T14:52:38.985Z,33.70
2022-08-28T14:55:30.842Z,33.43
2022-08-28T14:58:22.090Z,34.06
2022-08-28T15:01:30.246Z,33.12
2022-08-28T15:04:34.735Z,33.38
2022-08-28T15:07:26.769Z,33.54
2022-08-28T15:10:17.369Z,33.37
2022-08-28T15:13:10.375Z,33.67
2022-08-28T15:16:15.705Z,33.47
2022-08-28T15:19:13.200Z,33.61
2022-08-28T15:22:04.653Z,33.79
2022-08-28T15:24:55.795Z,33.81
2022-08-28T15:27:47.184Z,34.01
2022-08-28T15:30:39.855Z,33.76
2022-08-28T15:33:30.161Z,33.87
2022-08-28T15:36:24.589Z,34.10
2022-08-28T15:39:34.642Z,34.04
2022-08-28T15:42:26.386Z,33.72
2022-08-28T15:45:20.766Z,33.33
2022-08-28T15:48:13.818Z,33.22
2022-08-28T15:51:03.237Z,33.74
2022-08-28T15:53:54.862Z,33.84
2022-08-28T15:56:46.919Z,34.03
2022-08-28T15:59:49.741Z,33.96
2022-08-28T16:02:43.028Z,34.38
2022-08-28T16:05:40.669Z,34.24
2022-08-28T16:08:31.422Z,33.74
2022-08-28T16:11:23.658Z,34.32
2022-08-28T16:14:20.440Z,34.31
2022-08-28T16:17:11.677Z,34.46
2022-08-28T16:20:06.473Z,34.35
2022-08-28T16:23:02.602Z,34.29
2022-08-28T16:25:51.969Z,34.38
2022-08-28T16:28:44.942Z,34.35
2022-08-28T16:31:35.572Z,34.82
2022-08-28T16:34:31.480Z,34.67
2022-08-28T16:37:23.332Z,34.83
2022-08-28T16:40:14.848Z,34.85
2022-08-28T16:43:08.186Z,35.26
2022-08-28T16:45:58.192Z,34.56
2022-08-28T16:48:49.151Z,34.73
2022-08-28T16:51:39.922Z,35.00
2022-08-28T16:54:31.564Z,34.54
2022-08-28T16:57:22.542Z,34.72
2022-08-28T17:00:16.483Z,35.15
2022-08-28T17:03:04.763Z,35.05
2022-08-28T17:05:57.272Z,34.75
2022-08-28T17:08:48.261Z,35.05
2022-08-28T17:11:36.890Z,35.22
2022-08-28T17:14:30.621Z,35.31
2022-08-28T17:17:20.962Z,35.53
2022-08-28T17:20:31.666Z,35.85
2022-08-28T17:23:24.639Z,35.86
2022-08-28T17:26:17.675Z,35.72
2022-08-28T17:29:10.027Z,35.91
2022-08-28T17:32:01.325Z,36.18
2022-08-28T17:34:50.777Z,36.34
2022-08-28T17:37:43.861Z,35.97
2022-08-28T17:40:34.410Z,36.17
2022-08-28T17:43:28.161Z,36.42
2022-08-28T17:46:19.956Z,36.55
2022-08-28T17:49:11.609Z,36.26
2022-08-28T17:52:02.132Z,36.88
2022-08-28T17:54:50.215Z,36.93
2022-08-28T17:57:40.911Z,37.59
2022-08-28T18:00:28.929Z,37.67
2022-08-28T18:03:16.987Z,37.96
2022-08-28T18:06:06.767Z,38.10
2022-08-28T18:08:54.814Z,38.53
2022-08-28T18:11:43.257Z,38.62
2022-08-28T18:14:31.275Z,39.24
2022-08-28T18:17:19.482Z,38.92
2022-08-28T18:20:11.145Z,39.28
2022-08-28T18:23:01.385Z,39.19
2022-08-28T18:25:52.937Z,39.41
2022-08-28T18:28:43.619Z,39.50
2022-08-28T18:31:33.239Z,40.17
2022-08-28T18:34:22.648Z,40.29
2022-08-28T18:37:14.074Z,40.61
2022-08-28T18:40:03.435Z,40.63
2022-08-28T18:42:52.129Z,41.13
2022-08-28T18:45:42.294Z,40.91
2022-08-28T18:48:32.457Z,41.52
2022-08-28T18:51:23.423Z,41.46
2022-08-28T18:54:17.824Z,41.58
2022-08-28T18:57:05.949Z,41.70
2022-08-28T18:59:55.185Z,41.96
2022-08-28T19:02:44.130Z,41.90
2022-08-28T19:05:33.586Z,42.40
2022-08-28T19:08:22.990Z,42.41
2022-08-28T19:11:13.302Z,42.49
2022-08-28T19:14:03.946Z,42.94
2022-08-28T19:16:52.084Z,43.00
2022-08-28T19:19:40.083Z,43.16
2022-08-28T19:22:28.583Z,43.41
2022-08-28T19:25:27.907Z,43.59
2022-08-28T19:28:16.915Z,43.63
2022-08-28T19:31:05.286Z,43.80
2022-08-28T19:33:53.375Z,44.28
2022-08-28T19:36:41.943Z,44.66
2022-08-28T19:39:30.329Z,45.13
2022-08-28T19:42:19.467Z,45.18
2022-08-28T19:45:11.708Z,45.27
2022-08-28T19:48:00.210Z,45.24
2022-08-28T19:50:48.807Z,45.51
2022-08-28T19:53:37.615Z,45.55
2022-08-28T19:56:33.806Z,45.99
2022-08-28T19:59:26.526Z,45.78
2022-08-28T20:02:15.040Z,45.79
2022-08-28T20:05:04.647Z,46.21
2022-08-28T20:07:52.684Z,46.42
2022-08-28T20:10:43.743Z,46.36
2022-08-28T20:13:33.313Z,47.08
2022-08-28T20:16:21.766Z,47.00
2022-08-28T20:19:12.519Z,47.19
2022-08-28T20:22:00.380Z,47.56
2022-08-28T20:24:48.251Z,47.29
2022-08-28T20:27:36.525Z,47.53
2022-08-28T20:30:25.174Z,47.71
2022-08-28T20:33:13.490Z,47.97
2022-08-28T20:36:04.554Z,48.01
2022-08-28T20:38:52.619Z,48.51
2022-08-28T20:41:44.635Z,48.61
2022-08-28T20:44:32.530Z,48.89
2022-08-28T20:47:22.014Z,48.81
2022-08-28T20:50:12.696Z,49.45
2022-08-28T20:53:03.771Z,49.86
2022-08-28T20:55:59.892Z,50.12
2022-08-28T20:58:47.748Z,50.44
2022-08-28T21:01:35.807Z,50.92
2022-08-28T21:04:24.401Z,51.21
2022-08-28T21:07:15.702Z,51.46
2022-08-28T21:10:07.869Z,51.99
2022-08-28T21:12:55.990Z,52.48
2022-08-28T21:15:43.936Z,52.58
2022-08-28T21:18:31.887Z,52.92
2022-08-28T21:21:19.718Z,52.91
2022-08-28T21:24:12.309Z,53.18
2022-08-28T21:27:00.206Z,53.72
2022-08-28T21:29:48.088Z,53.61
2022-08-28T21:32:37.001Z,53.71
2022-08-28T21:35:24.907Z,53.36
2022-08-28T21:38:12.835Z,54.02
2022-08-28T21:41:14.538Z,54.18
2022-08-28T21:44:03.030Z,54.58
2022-08-28T21:46:51.102Z,54.56
2022-08-28T21:49:39.207Z,55.35
2022-08-28T21:52:30.399Z,55.78
2022-08-28T21:55:18.240Z,56.10
2022-08-28T21:58:06.046Z,56.27
2022-08-28T22:00:59.060Z,56.68
2022-08-28T22:03:47.621Z,56.86
2022-08-28T22:06:35.511Z,56.88
2022-08-28T22:09:24.877Z,57.07
2022-08-28T22:12:12.814Z,57.42
2022-08-28T22:15:01.048Z,57.70
2022-08-28T22:17:48.891Z,57.93
2022-08-28T22:20:59.237Z,58.08
2022-08-28T22:23:47.795Z,58.38
2022-08-28T22:26:36.193Z,58.81
2022-08-28T22:29:24.309Z,59.21
2022-08-28T22:32:12.180Z,58.93
2022-08-28T22:35:00.059Z,58.97
2022-08-28T22:37:47.880Z,59.17
2022-08-28T22:40:35.700Z,59.37
2022-08-28T22:43:24.131Z,59.37
2022-08-28T22:46:12.501Z,59.79
2022-08-28T22:49:00.398Z,59.75
2022-08-28T22:51:48.895Z,59.55
2022-08-28T22:54:36.920Z,59.65
2022-08-28T22:57:24.973Z,59.54
2022-08-28T23:00:19.521Z,59.81
2022-08-28T23:03:07.773Z,59.69
2022-08-28T23:05:55.600Z,59.86
2022-08-28T23:08:43.538Z,59.84
2022-08-28T23:11:31.493Z,60.24
2022-08-28T23:14:19.462Z,60.00
2022-08-28T23:17:07.559Z,60.00
2022-08-28T23:19:56.134Z,60.20
2022-08-28T23:22:43.981Z,60.60
2022-08-28T23:25:31.881Z,60.51
2022-08-28T23:28:20.298Z,60.27
2022-08-28T23:31:08.925Z,60.56
2022-08-28T23:33:56.715Z,60.80
2022-08-28T23:36:45.039Z,60.66
2022-08-28T23:39:33.486Z,60.57
2022-08-28T23:42:21.338Z,61.10
2022-08-28T23:45:11.554Z,60.63
2022-08-28T23:47:59.637Z,60.81
2022-08-28T23:50:47.766Z,60.42
2022-08-28T23:53:35.737Z,60.87
2022-08-28T23:56:23.858Z,60.71
2022-08-28T23:59:16.061Z,60.72
